Detall de PIREP

Printer-friendly versionPDF version

[2013/07/16 11:30:00]
Flight IATA:CT0001
Pilot Number:011
Company ICAO:CAT
Aircraft Type:B738/F
PAX:160
Departing Airport: LERS
Destination Airport: LEAL
Alternate Airport:LEPA
Online: VATSIM
Route:EBROX UM985 VLC
Flight Level:F290
No Slew and time accel
No pause
Crash detect
Detect pilot in Cockpit between each 30 and 45 minutes
11:30 Zero fuel Weight: 136990 Lbs, Fuel Weight: 11563 Lbs
11:30 VATSIM:LERS 161100Z 19007KT 140V260 9999 FEW035 31/16 Q1020
11:30 VATSIM:LEAL 161100Z 09009KT 060V130 CAVOK 29/19 Q1020 NOSIG
11:35 Parking Brakes off
11:47 Take-off
11:47 Take off Weight: 147578 Lbs
11:47 Wind: 163º @ 008 Knots Heading: 246º
11:47 POS N41º 08´ 52´´ E001º 10´ 07´´
11:47 Gear Up: 147 Knots
11:47 Flaps:5 at 147 Knots
11:50 Flaps:4 at 176 Knots
11:50 Flaps:3 at 185 Knots
11:51 Flaps:2 at 196 Knots
11:51 Flaps:1 at 196 Knots
11:51 Flaps:0 at 197 Knots
12:00 TOC
12:00 Fuel Weight: 7562 Lb
12:02 Wind:161º@027 Knots Heading: 221º Ground Speed: 438 Knots Altitude 29179 ft
12:07 TOD
12:07 Fuel Weight: 6791 Lb
12:17 Wind:113º@025 Knots Heading: 192º Ground Speed: 356 Knots Altitude 11456 ft
12:24 Flaps:1 at 236 Knots
12:24 Flaps:2 at 236 Knots
12:25 Flaps:3 at 216 Knots
12:25 Flaps:4 at 212 Knots
12:25 Flaps:5 at 184 Knots
12:26 Flaps:6 at 167 Knots
12:26 Gear Down: 167 Knots
12:28 Flaps:7 at 138 Knots
12:28 Flaps:8 at 133 Knots
12:32 Wind:093º@010 Knots Heading: 099º Ground Speed: 121 Knots Altitude 272 ft
12:32 TouchDown:Rate -357 ft/min Speed: 114 Knots
12:32 VATSIM:LEAL 161200Z 09010KT 050V130 CAVOK 29/21 Q1020 NOSIG
12:32 Land
12:32 Wind:093º@010 Knots
12:32 Heading: 100º
12:32 Flight Duration: 00:45
12:32 Landing Weight: 142304 Lbs
12:32 POS N38º 16´ 55´´ W000º 33´ 24´´
12:37 Parking brakes on
12:37 Block to Block Duration: 01:02
12:37 Final Fuel: 4949 Lbls
12:37 Spent Fuel: 6613 Lbls
12:37 Flight Length: 231 NM
12:37 TOD Land Length: 121 NM

Exportar CSV

Powered by Drupal - Modified by Danger4k